Time;durP1;ratioP1;P1;durP2;ratioP2;P2;SDS_P1;SDS_P2;PMS_P1;PMS_P2;Temp;Humidity;BMP_temperature;BMP_pressure;BME280_temperature;BME280_humidity;BME280_pressure;Samples;Min_cycle;Max_cycle;Signal;HPM_P1;HPM_P2
2021/03/01 00:04:51;;;;;;;0.80;0.80;;;;;;;2.17;67.37;98280.78;299396;221;63016;-57
2021/03/01 00:09:52;;;;;;;0.70;0.70;;;;;;;2.04;67.98;98285.31;299396;215;63004;-58
2021/03/01 00:14:54;;;;;;;0.70;0.70;;;;;;;2.06;67.45;98285.94;299396;257;63021;-58
2021/03/01 00:19:55;;;;;;;0.80;0.80;;;;;;;1.99;67.80;98284.06;299396;217;63005;-57
2021/03/01 00:24:56;;;;;;;0.80;0.80;;;;;;;2.01;67.53;98276.66;299396;339;63008;-57
2021/03/01 00:29:57;;;;;;;0.70;0.70;;;;;;;1.96;67.64;98286.31;299396;259;63004;-59
2021/03/01 00:34:58;;;;;;;0.80;0.80;;;;;;;1.91;67.28;98286.94;299396;197;63009;-57
2021/03/01 00:39:59;;;;;;;0.80;0.80;;;;;;;1.87;66.96;98284.84;299396;290;63005;-58
2021/03/01 00:45:00;;;;;;;0.80;0.80;;;;;;;1.87;67.32;98290.22;299397;296;63009;-57
2021/03/01 00:50:01;;;;;;;0.80;0.80;;;;;;;1.83;67.70;98286.28;299397;232;63005;-58
2021/03/01 00:55:04;;;;;;;0.70;0.70;;;;;;;1.86;67.36;98286.72;299395;202;63009;-57
2021/03/01 01:00:11;;;;;;;0.70;0.70;;;;;;;1.87;66.96;98291.03;299395;203;63004;-57
2021/03/01 01:05:13;;;;;;;0.70;0.70;;;;;;;1.81;67.62;98283.81;299395;232;63009;-58
2021/03/01 01:10:14;;;;;;;0.70;0.70;;;;;;;1.82;67.96;98282.78;299395;229;63005;-57
2021/03/01 01:15:17;;;;;;;0.80;0.80;;;;;;;1.82;67.91;98277.44;299395;320;63009;-58
2021/03/01 01:20:17;;;;;;;0.80;0.80;;;;;;;1.85;67.66;98277.03;299395;218;63005;-53
2021/03/01 01:25:19;;;;;;;0.77;0.77;;;;;;;1.79;67.71;98272.50;299395;317;63009;-53
2021/03/01 01:30:23;;;;;;;0.70;0.70;;;;;;;1.72;67.85;98271.66;299395;274;63004;-57
2021/03/01 01:35:24;;;;;;;0.70;0.70;;;;;;;1.60;67.98;98275.97;299417;236;63009;-58
2021/03/01 01:40:25;;;;;;;0.80;0.80;;;;;;;1.58;67.87;98270.81;299395;213;63005;-57
2021/03/01 01:45:27;;;;;;;0.70;0.70;;;;;;;1.42;68.39;98275.69;299395;231;63019;-57
2021/03/01 01:50:29;;;;;;;0.80;0.80;;;;;;;1.31;68.39;98269.91;299395;211;63005;-58
2021/03/01 01:55:32;;;;;;;0.73;0.73;;;;;;;1.23;68.26;98270.06;299395;216;63009;-57
2021/03/01 02:00:47;;;;;;;0.80;0.80;;;;;;;1.13;68.50;98269.63;299395;336;63012;-57
2021/03/01 02:05:51;;;;;;;0.80;0.80;;;;;;;0.98;69.06;98268.94;299395;230;63009;-57
2021/03/01 02:11:15;;;;;;;0.80;0.80;;;;;;;0.94;69.43;98265.00;299395;199;63005;-57
2021/03/01 02:16:21;;;;;;;0.80;0.80;;;;;;;0.91;70.12;98260.88;299395;294;63017;-58
2021/03/01 02:21:23;;;;;;;0.80;0.80;;;;;;;1.06;69.58;98250.03;299395;369;63004;-58
2021/03/01 02:26:33;;;;;;;0.80;0.80;;;;;;;1.27;68.96;98239.25;299395;294;63018;-57
2021/03/01 02:31:41;;;;;;;0.80;0.80;;;;;;;1.28;69.03;98248.09;299395;196;63004;-52
2021/03/01 02:36:58;;;;;;;0.80;0.80;;;;;;;1.25;69.05;98243.97;299395;244;63021;-57
2021/03/01 02:42:03;;;;;;;0.80;0.80;;;;;;;1.21;68.70;98242.72;299395;228;63005;-58
2021/03/01 02:47:04;;;;;;;0.80;0.80;;;;;;;1.17;68.44;98241.47;299395;275;63009;-58
2021/03/01 02:52:07;;;;;;;0.80;0.80;;;;;;;0.73;69.71;98239.19;299395;320;63011;-58
2021/03/01 02:57:11;;;;;;;0.80;0.80;;;;;;;0.83;69.84;98234.31;299395;200;63009;-58
2021/03/01 03:02:13;;;;;;;0.80;0.80;;;;;;;0.73;70.23;98238.38;299417;240;63005;-58
2021/03/01 03:07:14;;;;;;;0.75;0.75;;;;;;;0.69;70.25;98243.31;299373;202;63009;-58
2021/03/01 03:12:18;;;;;;;0.80;0.80;;;;;;;0.68;70.41;98230.16;299395;220;63020;-58
2021/03/01 03:17:20;;;;;;;0.80;0.80;;;;;;;0.69;69.95;98234.47;299395;199;63009;-58
2021/03/01 03:22:21;;;;;;;0.80;0.80;;;;;;;0.65;70.31;98236.72;299395;277;63011;-57
2021/03/01 03:27:22;;;;;;;0.80;0.80;;;;;;;0.77;69.94;98223.59;299395;215;63009;-57
2021/03/01 03:32:24;;;;;;;0.80;0.80;;;;;;;0.81;69.60;98231.03;299395;203;63005;-58
2021/03/01 03:37:32;;;;;;;0.80;0.80;;;;;;;0.85;69.56;98220.78;299395;199;63021;-57
2021/03/01 03:42:35;;;;;;;0.80;0.80;;;;;;;0.90;69.39;98231.69;299395;208;63004;-58
2021/03/01 03:47:37;;;;;;;0.80;0.80;;;;;;;0.99;69.21;98233.19;299395;202;63009;-58
2021/03/01 03:52:41;;;;;;;0.80;0.80;;;;;;;1.00;68.93;98224.13;299395;221;63004;-58
2021/03/01 03:58:02;;;;;;;0.80;0.80;;;;;;;1.00;68.97;98229.47;299417;204;63009;-58
2021/03/01 04:03:12;;;;;;;0.80;0.80;;;;;;;1.06;68.88;98228.66;299395;198;63005;-58
2021/03/01 04:08:17;;;;;;;0.80;0.80;;;;;;;1.05;68.54;98227.00;299395;340;63008;-59
2021/03/01 04:13:19;;;;;;;0.80;0.80;;;;;;;0.98;68.78;98226.19;299417;211;63021;-58
2021/03/01 04:18:34;;;;;;;0.80;0.80;;;;;;;0.98;68.84;98215.50;299395;224;63009;-58
2021/03/01 04:23:40;;;;;;;0.70;0.70;;;;;;;0.99;68.83;98214.47;299417;237;63005;-58
2021/03/01 04:28:43;;;;;;;0.73;0.73;;;;;;;0.77;69.43;98218.25;299395;228;63009;-58
2021/03/01 04:33:45;;;;;;;0.80;0.80;;;;;;;0.75;69.09;98220.28;299395;294;63005;-58
2021/03/01 04:38:46;;;;;;;0.80;0.80;;;;;;;0.53;70.18;98219.56;299395;202;63009;-58
2021/03/01 04:43:48;;;;;;;0.80;0.80;;;;;;;0.40;70.24;98224.81;299395;204;63004;-58
2021/03/01 04:48:51;;;;;;;0.70;0.70;;;;;;;0.38;70.99;98230.34;299394;209;64009;-57
2021/03/01 04:53:56;;;;;;;0.80;0.80;;;;;;;0.46;70.27;98226.72;299395;198;63005;-58
2021/03/01 04:58:57;;;;;;;0.80;0.80;;;;;;;0.57;69.77;98223.50;299417;246;63009;-58
2021/03/01 05:03:59;;;;;;;0.90;0.90;;;;;;;0.39;70.71;98228.50;299395;265;63005;-58
2021/03/01 05:09:02;;;;;;;0.80;0.80;;;;;;;0.26;71.37;98226.59;299395;206;63009;-58
2021/03/01 05:14:06;;;;;;;0.77;0.77;;;;;;;0.16;71.75;98223.44;299395;202;63004;-58
2021/03/01 05:19:07;;;;;;;0.80;0.80;;;;;;;0.34;71.06;98231.78;299417;355;63009;-53
2021/03/01 05:24:12;;;;;;;0.80;0.80;;;;;;;0.21;71.80;98237.03;299395;258;63005;-58
2021/03/01 05:29:13;;;;;;;0.80;0.80;;;;;;;-0.01;72.19;98237.09;299417;307;63009;-58
2021/03/01 05:34:15;;;;;;;0.80;0.80;;;;;;;-0.05;71.97;98235.81;299395;205;63005;-58
2021/03/01 05:39:19;;;;;;;0.80;0.80;;;;;;;-0.27;72.83;98236.81;299395;227;63009;-57
2021/03/01 05:44:20;;;;;;;0.80;0.80;;;;;;;-0.33;73.08;98237.59;299417;229;63004;-58
2021/03/01 05:49:23;;;;;;;0.80;0.80;;;;;;;-0.39;73.64;98241.88;299395;248;63009;-58
2021/03/01 05:54:29;;;;;;;0.80;0.80;;;;;;;-0.33;73.47;98237.59;299395;204;63005;-58
2021/03/01 05:59:31;;;;;;;0.80;0.80;;;;;;;-0.38;73.40;98226.69;299395;239;63008;-59
2021/03/01 06:04:32;;;;;;;0.80;0.80;;;;;;;-0.49;74.01;98243.19;299395;262;63004;-58
2021/03/01 06:09:33;;;;;;;0.80;0.80;;;;;;;-0.43;73.66;98245.94;299395;216;63005;-58
2021/03/01 06:14:34;;;;;;;0.80;0.80;;;;;;;-0.46;73.75;98256.16;299395;215;63004;-59
2021/03/01 06:19:55;;;;;;;0.80;0.80;;;;;;;-0.39;74.28;98255.19;299395;229;63009;-58
2021/03/01 06:25:13;;;;;;;0.90;0.90;;;;;;;-0.26;74.37;98251.00;299395;222;63005;-57
2021/03/01 06:30:16;;;;;;;0.80;0.80;;;;;;;-0.22;74.07;98263.75;299395;220;63021;-58
2021/03/01 06:35:32;;;;;;;0.80;0.80;;;;;;;-0.31;73.99;98262.22;299395;206;63004;-57
2021/03/01 06:40:33;;;;;;;0.80;0.80;;;;;;;-0.26;74.34;98264.31;299395;202;63005;-58
2021/03/01 06:45:34;;;;;;;0.80;0.80;;;;;;;-0.19;73.80;98260.72;299395;207;63005;-57
2021/03/01 06:50:45;;;;;;;0.80;0.80;;;;;;;-0.27;74.87;98276.00;299395;206;63009;-59
2021/03/01 06:56:06;;;;;;;0.80;0.80;;;;;;;-0.28;74.96;98277.84;299395;230;63005;-58
2021/03/01 07:01:21;;;;;;;0.80;0.80;;;;;;;-0.34;74.87;98278.59;299395;228;63009;-58
2021/03/01 07:06:22;;;;;;;0.80;0.80;;;;;;;-0.20;74.82;98267.06;299417;381;63004;-57
2021/03/01 07:11:35;;;;;;;0.80;0.80;;;;;;;-0.10;74.78;98270.25;299395;210;63022;-53
2021/03/01 07:17:05;;;;;;;0.80;0.80;;;;;;;-0.24;75.14;98273.78;299395;398;63005;-52
2021/03/01 07:22:08;;;;;;;0.80;0.80;;;;;;;-0.10;75.20;98282.75;299395;273;63009;-57
2021/03/01 07:27:11;;;;;;;0.80;0.80;;;;;;;-0.07;75.28;98287.72;299395;392;63004;-57
2021/03/01 07:32:16;;;;;;;0.80;0.80;;;;;;;0.12;75.19;98283.56;299395;333;63009;-58
2021/03/01 07:37:18;;;;;;;0.80;0.80;;;;;;;0.21;74.44;98285.91;299395;218;63005;-58
2021/03/01 07:42:21;;;;;;;0.80;0.80;;;;;;;0.44;74.63;98287.50;299395;322;63009;-58
2021/03/01 07:47:29;;;;;;;0.80;0.80;;;;;;;0.57;74.30;98288.44;299395;262;63005;-58
2021/03/01 07:52:38;;;;;;;0.80;0.80;;;;;;;0.82;73.51;98278.09;299395;231;63009;-57
2021/03/01 07:57:41;;;;;;;0.80;0.80;;;;;;;1.11;71.71;98281.53;299395;237;63007;-53
2021/03/01 08:02:42;;;;;;;0.80;0.80;;;;;;;1.39;71.03;98276.13;299395;214;63009;-57
2021/03/01 08:07:44;;;;;;;0.80;0.80;;;;;;;1.85;69.51;98282.38;299395;257;63005;-58
2021/03/01 08:13:05;;;;;;;0.80;0.80;;;;;;;2.29;67.29;98272.94;299395;243;63013;-57
2021/03/01 08:18:08;;;;;;;0.70;0.70;;;;;;;2.62;66.54;98280.97;299395;212;63005;-58
2021/03/01 08:23:14;;;;;;;0.70;0.70;;;;;;;2.83;65.51;98277.19;299395;262;63009;-53
2021/03/01 08:28:46;;;;;;;0.70;0.70;;;;;;;2.98;65.64;98262.53;299395;215;63004;-59
2021/03/01 08:33:47;;;;;;;0.70;0.70;;;;;;;3.37;64.40;98266.09;299395;197;63009;-57
2021/03/01 08:38:53;;;;;;;0.80;0.80;;;;;;;3.72;62.64;98263.84;299395;218;63005;-57
2021/03/01 08:43:56;;;;;;;0.70;0.70;;;;;;;3.91;61.42;98262.91;299395;227;63008;-58
2021/03/01 08:48:59;;;;;;;0.80;0.80;;;;;;;4.25;60.48;98274.22;299395;230;63004;-57
2021/03/01 08:54:00;;;;;;;0.70;0.70;;;;;;;4.25;61.21;98266.16;299395;224;63009;-53
2021/03/01 08:59:21;;;;;;;0.80;0.80;;;;;;;4.50;60.63;98258.94;299395;235;63005;-58
2021/03/01 09:04:22;;;;;;;0.70;0.70;;;;;;;4.78;59.24;98257.63;299395;248;63009;-57
2021/03/01 09:09:23;;;;;;;0.80;0.80;;;;;;;4.99;58.48;98249.13;299395;248;63005;-60
2021/03/01 09:14:26;;;;;;;0.82;0.82;;;;;;;5.51;57.96;98250.38;299395;322;63009;-58
2021/03/01 09:19:33;;;;;;;0.70;0.70;;;;;;;6.01;54.72;98234.75;299395;330;63004;-57
2021/03/01 09:24:34;;;;;;;0.70;0.70;;;;;;;6.45;52.77;98227.19;299395;233;63009;-57
2021/03/01 09:29:35;;;;;;;0.70;0.70;;;;;;;6.50;50.79;98221.09;299395;360;63001;-54
2021/03/01 09:34:36;;;;;;;0.60;0.60;;;;;;;6.51;51.06;98220.88;299395;321;63009;-58
2021/03/01 09:39:43;;;;;;;0.70;0.70;;;;;;;6.63;49.94;98218.97;299395;224;63005;-58
2021/03/01 09:44:46;;;;;;;0.70;0.70;;;;;;;6.76;49.24;98222.50;299395;333;63009;-57
2021/03/01 09:49:47;;;;;;;0.60;0.60;;;;;;;6.79;48.31;98224.72;299395;238;63004;-57
2021/03/01 09:54:50;;;;;;;0.70;0.70;;;;;;;6.81;50.00;98230.72;299395;235;63009;-58
2021/03/01 09:59:51;;;;;;;0.70;0.70;;;;;;;6.90;47.70;98203.13;299395;206;63005;-58
2021/03/01 10:05:08;;;;;;;0.70;0.70;;;;;;;6.86;49.21;98217.34;299395;229;63008;-57
2021/03/01 10:10:16;;;;;;;0.70;0.70;;;;;;;6.77;51.53;98234.94;299395;216;63004;-53
2021/03/01 10:15:18;;;;;;;0.60;0.60;;;;;;;6.87;51.12;98218.97;299395;216;63009;-57
2021/03/01 10:20:19;;;;;;;0.70;0.70;;;;;;;7.09;50.66;98216.47;299395;242;63004;-59
2021/03/01 10:25:36;;;;;;;0.70;0.70;;;;;;;7.05;50.46;98216.94;299395;249;63009;-59
2021/03/01 10:30:37;;;;;;;0.70;0.70;;;;;;;7.18;48.73;98199.66;299394;223;64005;-58
2021/03/01 10:35:38;;;;;;;0.70;0.70;;;;;;;7.51;49.20;98198.16;299395;224;63008;-53
2021/03/01 10:40:39;;;;;;;0.70;0.70;;;;;;;7.94;47.52;98198.41;299395;202;63004;-58
2021/03/01 10:45:42;;;;;;;0.60;0.60;;;;;;;8.14;43.98;98187.09;299395;227;63009;-58
2021/03/01 10:50:43;;;;;;;0.70;0.70;;;;;;;8.12;46.33;98199.22;299395;202;63004;-59
2021/03/01 10:55:44;;;;;;;0.60;0.60;;;;;;;7.83;47.34;98188.47;299395;283;63009;-58
2021/03/01 11:00:48;;;;;;;0.70;0.70;;;;;;;7.82;44.28;98189.53;299394;198;64005;-60
2021/03/01 11:05:49;;;;;;;0.60;0.60;;;;;;;7.94;46.52;98184.88;299395;358;63004;-59
2021/03/01 11:10:53;;;;;;;0.60;0.60;;;;;;;7.87;46.75;98181.53;299395;209;63004;-58
2021/03/01 11:15:54;;;;;;;0.70;0.70;;;;;;;7.98;46.53;98188.72;299417;211;63009;-58
2021/03/01 11:20:55;;;;;;;0.60;0.60;;;;;;;8.10;45.93;98175.12;299395;224;63005;-59
2021/03/01 11:25:56;;;;;;;0.60;0.60;;;;;;;8.41;39.58;98154.81;299395;221;63009;-58
2021/03/01 11:30:57;;;;;;;0.70;0.70;;;;;;;8.79;39.26;98145.06;299395;213;63011;-57
2021/03/01 11:35:58;;;;;;;0.60;0.60;;;;;;;9.02;34.70;98144.81;299395;217;63009;-59
2021/03/01 11:41:00;;;;;;;0.60;0.60;;;;;;;9.18;34.50;98133.09;299396;205;63004;-59
2021/03/01 11:46:04;;;;;;;0.60;0.60;;;;;;;9.44;33.06;98125.25;299396;236;63009;-59
2021/03/01 11:51:05;;;;;;;0.60;0.60;;;;;;;9.43;33.75;98120.91;299418;280;63005;-57
2021/03/01 11:56:07;;;;;;;0.60;0.60;;;;;;;9.62;31.95;98116.78;299396;221;63009;-59
2021/03/01 12:01:12;;;;;;;0.60;0.60;;;;;;;9.78;31.61;98094.13;299396;299;63005;-59
2021/03/01 12:06:13;;;;;;;0.65;0.65;;;;;;;9.84;30.92;98087.69;299418;197;63018;-59
2021/03/01 12:11:14;;;;;;;0.85;0.85;;;;;;;9.91;31.20;98088.28;299396;225;63004;-59
2021/03/01 12:16:15;;;;;;;0.60;0.60;;;;;;;10.09;32.00;98084.34;299396;231;63005;-58
2021/03/01 12:21:16;;;;;;;0.60;0.60;;;;;;;10.36;32.36;98087.00;299396;205;63005;-58
2021/03/01 12:26:17;;;;;;;0.60;0.60;;;;;;;10.35;31.90;98077.25;299397;198;63009;-52
2021/03/01 12:31:18;;;;;;;0.60;0.60;;;;;;;10.50;33.63;98090.88;299397;218;63005;-58
2021/03/01 12:36:19;;;;;;;0.60;0.60;;;;;;;10.71;33.26;98070.09;299396;289;63009;-59
2021/03/01 12:41:20;;;;;;;0.60;0.60;;;;;;;10.77;33.87;98076.34;299396;252;63004;-59
2021/03/01 12:46:21;;;;;;;0.60;0.60;;;;;;;10.82;34.53;98076.38;299396;243;63009;-58
2021/03/01 12:51:22;;;;;;;0.60;0.60;;;;;;;10.88;33.72;98064.44;299396;202;63005;-58
2021/03/01 12:56:23;;;;;;;0.60;0.60;;;;;;;10.86;34.81;98066.63;299396;220;63009;-57
2021/03/01 13:01:24;;;;;;;0.60;0.60;;;;;;;10.92;34.90;98065.56;299396;307;63005;-58
2021/03/01 13:06:25;;;;;;;0.60;0.60;;;;;;;10.94;34.82;98064.22;299396;205;63009;-58
2021/03/01 13:11:26;;;;;;;0.60;0.60;;;;;;;11.11;34.05;98052.28;299396;265;63009;-57
2021/03/01 13:16:30;;;;;;;0.60;0.60;;;;;;;11.19;34.72;98049.87;299397;225;63009;-56
2021/03/01 13:21:31;;;;;;;0.60;0.60;;;;;;;11.14;34.81;98046.31;299419;351;63005;-57
2021/03/01 13:26:32;;;;;;;0.60;0.60;;;;;;;11.16;35.72;98049.59;299395;352;63008;-57
2021/03/01 13:31:33;;;;;;;0.60;0.60;;;;;;;11.22;35.28;98041.19;299395;221;63004;-58
2021/03/01 13:36:34;;;;;;;0.60;0.60;;;;;;;11.26;36.08;98044.19;299395;225;63021;-58
2021/03/01 13:41:35;;;;;;;0.70;0.70;;;;;;;11.36;35.55;98039.59;299395;350;63004;-57
2021/03/01 13:46:36;;;;;;;0.60;0.60;;;;;;;11.47;35.11;98045.00;299395;197;63009;-57
2021/03/01 13:51:37;;;;;;;0.60;0.60;;;;;;;11.40;34.59;98024.38;299394;391;63005;-52
2021/03/01 13:56:38;;;;;;;0.60;0.60;;;;;;;11.54;34.64;98018.38;299395;224;63028;-58
2021/03/01 14:01:39;;;;;;;0.60;0.60;;;;;;;11.47;35.15;98026.00;299395;224;63004;-57
2021/03/01 14:06:40;;;;;;;0.60;0.60;;;;;;;11.46;34.96;98027.06;299395;241;63009;-58
2021/03/01 14:11:41;;;;;;;0.60;0.60;;;;;;;11.53;35.14;98016.75;299395;202;63004;-57
2021/03/01 14:16:42;;;;;;;0.60;0.60;;;;;;;11.67;35.30;98028.72;299395;240;63009;-57
2021/03/01 14:21:43;;;;;;;0.60;0.60;;;;;;;11.69;35.03;98026.56;299395;209;63005;-57
2021/03/01 14:26:44;;;;;;;0.60;0.60;;;;;;;11.72;35.04;98012.44;299395;252;63008;-57
2021/03/01 14:31:45;;;;;;;0.60;0.60;;;;;;;11.71;34.83;98008.06;299395;200;63004;-56
2021/03/01 14:36:47;;;;;;;0.60;0.60;;;;;;;11.79;35.36;98010.25;299395;318;63009;-57
2021/03/01 14:41:51;;;;;;;0.60;0.60;;;;;;;11.71;35.49;98008.06;299395;220;63005;-57
2021/03/01 14:46:53;;;;;;;0.60;0.60;;;;;;;11.81;35.88;98010.78;299417;212;63009;-57
2021/03/01 14:51:55;;;;;;;0.60;0.60;;;;;;;11.86;36.11;98005.34;299395;237;63005;-58
2021/03/01 14:56:56;;;;;;;0.60;0.60;;;;;;;11.83;35.22;97999.66;299395;215;63009;-58
2021/03/01 15:02:00;;;;;;;0.50;0.50;;;;;;;11.79;35.58;98004.00;299395;274;63009;-58
2021/03/01 15:07:01;;;;;;;0.60;0.60;;;;;;;11.83;35.34;97994.22;299395;222;63009;-54
2021/03/01 15:12:03;;;;;;;0.60;0.60;;;;;;;11.78;35.10;97996.97;299395;222;63011;-57
2021/03/01 15:17:07;;;;;;;0.60;0.60;;;;;;;11.93;34.15;97988.75;299395;209;63009;-53
2021/03/01 15:22:08;;;;;;;0.60;0.60;;;;;;;11.87;34.24;97990.66;299417;215;63009;-57
2021/03/01 15:27:09;;;;;;;0.90;0.90;;;;;;;11.89;34.10;97987.69;299373;222;63009;-53
2021/03/01 15:32:10;;;;;;;0.50;0.50;;;;;;;11.88;34.65;97991.47;299395;217;63004;-54
2021/03/01 15:37:11;;;;;;;0.60;0.60;;;;;;;11.92;33.76;97985.22;299395;227;63009;-53
2021/03/01 15:42:12;;;;;;;0.60;0.60;;;;;;;12.01;33.28;97986.31;299395;339;63019;-53
2021/03/01 15:47:15;;;;;;;0.60;0.60;;;;;;;12.01;33.41;97980.06;299395;202;63020;-58
2021/03/01 15:52:16;;;;;;;0.60;0.60;;;;;;;12.12;33.51;97983.56;299395;244;63004;-57
2021/03/01 15:57:17;;;;;;;0.50;0.50;;;;;;;12.19;33.04;97990.31;299395;197;63009;-58
2021/03/01 16:02:18;;;;;;;0.50;0.50;;;;;;;12.24;32.80;97989.50;299395;271;63004;-57
2021/03/01 16:07:19;;;;;;;0.50;0.50;;;;;;;12.14;32.91;97994.97;299395;196;63009;-58
2021/03/01 16:12:23;;;;;;;0.50;0.50;;;;;;;11.97;33.16;97998.81;299395;251;63005;-61
2021/03/01 16:17:24;;;;;;;0.50;0.50;;;;;;;11.79;34.00;97993.94;299416;276;64008;-60
2021/03/01 16:22:26;;;;;;;0.50;0.50;;;;;;;11.57;33.80;98004.25;299395;215;63004;-61
2021/03/01 16:27:27;;;;;;;0.60;0.60;;;;;;;11.30;35.48;98018.13;299395;227;63009;-54
2021/03/01 16:32:28;;;;;;;0.60;0.60;;;;;;;11.07;35.47;98014.00;299395;224;63004;-57
2021/03/01 16:37:29;;;;;;;0.60;0.60;;;;;;;10.84;36.62;98019.91;299395;230;63009;-57
2021/03/01 16:42:33;;;;;;;0.60;0.60;;;;;;;10.64;37.15;98032.34;299395;276;63010;-58
2021/03/01 16:47:37;;;;;;;0.60;0.60;;;;;;;10.43;37.05;98036.03;299417;198;63008;-58
2021/03/01 16:52:38;;;;;;;0.60;0.60;;;;;;;10.27;37.75;98039.75;299417;225;63004;-63
2021/03/01 16:57:49;;;;;;;0.60;0.60;;;;;;;10.18;36.98;98038.56;299395;213;63009;-57
2021/03/01 17:02:51;;;;;;;0.60;0.60;;;;;;;10.01;37.84;98045.00;299395;252;63004;-59
2021/03/01 17:08:03;;;;;;;0.60;0.60;;;;;;;9.92;37.85;98046.56;299395;198;63004;-58
2021/03/01 17:13:10;;;;;;;0.50;0.50;;;;;;;9.74;37.92;98046.94;299395;284;63005;-58
2021/03/01 17:18:15;;;;;;;0.60;0.60;;;;;;;9.69;37.61;98052.34;299395;197;63009;-60
2021/03/01 17:23:21;;;;;;;0.60;0.60;;;;;;;9.50;38.22;98051.09;299395;268;63004;-54
2021/03/01 17:28:23;;;;;;;0.60;0.60;;;;;;;9.39;39.13;98059.09;299395;293;63009;-60
2021/03/01 17:33:25;;;;;;;0.60;0.60;;;;;;;9.30;39.18;98062.56;299395;210;63005;-58
2021/03/01 17:38:31;;;;;;;0.60;0.60;;;;;;;9.21;39.68;98073.03;299395;234;63009;-57
2021/03/01 17:43:32;;;;;;;0.60;0.60;;;;;;;9.13;39.66;98075.38;299395;230;63005;-57
2021/03/01 17:48:38;;;;;;;0.60;0.60;;;;;;;9.09;39.81;98080.47;299395;282;63009;-58
2021/03/01 17:53:51;;;;;;;0.60;0.60;;;;;;;9.00;40.62;98076.59;299395;253;63004;-58
2021/03/01 17:59:07;;;;;;;0.60;0.60;;;;;;;8.80;41.21;98092.59;299395;228;63009;-58
2021/03/01 18:04:10;;;;;;;0.60;0.60;;;;;;;8.72;41.89;98108.19;299395;227;63005;-58
2021/03/01 18:09:15;;;;;;;0.60;0.60;;;;;;;8.60;42.24;98103.97;299395;222;63008;-58
2021/03/01 18:14:17;;;;;;;0.60;0.60;;;;;;;8.44;42.79;98100.25;299395;206;63004;-58
2021/03/01 18:19:19;;;;;;;0.60;0.60;;;;;;;8.18;43.80;98112.56;299395;248;63009;-58
2021/03/01 18:24:22;;;;;;;0.60;0.60;;;;;;;7.90;45.38;98110.78;299388;245;63004;-59
2021/03/01 18:29:25;;;;;;;0.60;0.60;;;;;;;7.59;46.45;98112.16;299395;293;63009;-58
2021/03/01 18:34:53;;;;;;;0.60;0.60;;;;;;;7.33;47.38;98113.56;299395;238;63005;-58
2021/03/01 18:40:08;;;;;;;0.60;0.60;;;;;;;7.07;48.65;98112.25;299395;229;63009;-58
2021/03/01 18:45:11;;;;;;;;;;;;;;;6.92;48.67;98116.56;299996;983;6000;-58
2021/03/01 18:50:16;;;;;;;0.60;0.60;;;;;;;6.80;49.14;98123.84;299400;196;63005;-58
2021/03/01 18:55:19;;;;;;;0.70;0.70;;;;;;;6.63;49.69;98121.88;299395;226;63009;-58
2021/03/01 19:00:21;;;;;;;0.60;0.60;;;;;;;6.50;51.29;98124.84;299388;196;63004;-58
2021/03/01 19:05:22;;;;;;;0.60;0.60;;;;;;;6.46;50.49;98121.00;299395;218;63028;-57
2021/03/01 19:10:25;;;;;;;0.60;0.60;;;;;;;6.46;50.84;98125.56;299395;205;63005;-59
2021/03/01 19:15:26;;;;;;;0.60;0.60;;;;;;;6.45;51.23;98122.03;299395;232;63009;-58
2021/03/01 19:20:27;;;;;;;0.70;0.70;;;;;;;6.43;51.68;98126.84;299395;204;63005;-57
2021/03/01 19:25:29;;;;;;;0.60;0.60;;;;;;;6.37;52.04;98128.59;299395;219;63009;-53
2021/03/01 19:30:30;;;;;;;0.70;0.70;;;;;;;6.32;52.38;98127.66;299395;197;63004;-58
2021/03/01 19:35:32;;;;;;;0.60;0.60;;;;;;;6.23;52.55;98121.03;299395;202;63009;-57
2021/03/01 19:40:33;;;;;;;0.70;0.70;;;;;;;6.19;52.99;98126.06;299395;229;63005;-58
2021/03/01 19:45:34;;;;;;;0.60;0.60;;;;;;;6.19;53.20;98119.84;299395;196;63009;-58
2021/03/01 19:50:36;;;;;;;0.60;0.60;;;;;;;6.11;53.57;98117.50;299395;228;63005;-53
2021/03/01 19:55:38;;;;;;;0.60;0.60;;;;;;;6.08;53.57;98112.56;299395;238;63009;-53
2021/03/01 20:00:39;;;;;;;0.70;0.70;;;;;;;6.02;54.31;98120.53;299395;215;63004;-57
2021/03/01 20:05:40;;;;;;;0.60;0.60;;;;;;;5.99;54.60;98118.31;299395;226;63009;-54
2021/03/01 20:10:41;;;;;;;0.60;0.60;;;;;;;5.97;54.51;98117.72;299395;275;63005;-58
2021/03/01 20:15:44;;;;;;;0.60;0.60;;;;;;;5.93;54.75;98115.72;299395;222;63008;-58
2021/03/01 20:20:46;;;;;;;0.60;0.60;;;;;;;5.92;55.03;98120.28;299395;249;63004;-58
2021/03/01 20:25:47;;;;;;;0.70;0.70;;;;;;;5.92;55.44;98119.47;299395;207;63030;-58
2021/03/01 20:30:48;;;;;;;0.70;0.70;;;;;;;5.85;55.54;98119.56;299395;208;63004;-54
2021/03/01 20:35:50;;;;;;;0.62;0.62;;;;;;;5.79;55.72;98122.38;299395;213;63009;-58
2021/03/01 20:40:51;;;;;;;0.60;0.60;;;;;;;5.77;55.57;98122.59;299395;197;63005;-60
2021/03/01 20:45:53;;;;;;;0.60;0.60;;;;;;;5.73;55.55;98116.84;299395;199;63008;-58
2021/03/01 20:50:54;;;;;;;0.60;0.60;;;;;;;5.69;56.15;98125.63;299395;328;63004;-58
2021/03/01 20:55:54;;;;;;;0.70;0.70;;;;;;;5.70;56.44;98128.06;299395;210;63009;-58
2021/03/01 21:00:55;;;;;;;0.70;0.70;;;;;;;5.71;56.47;98120.81;299395;232;63004;-58
2021/03/01 21:05:57;;;;;;;0.62;0.62;;;;;;;5.68;56.58;98121.28;299395;292;63009;-58
2021/03/01 21:10:58;;;;;;;0.70;0.70;;;;;;;5.69;56.47;98125.63;299395;292;63005;-58
2021/03/01 21:16:04;;;;;;;0.70;0.70;;;;;;;5.65;56.53;98116.34;299395;287;63008;-54
2021/03/01 21:21:07;;;;;;;0.70;0.70;;;;;;;5.61;56.96;98116.00;299395;202;63004;-57
2021/03/01 21:26:11;;;;;;;0.70;0.70;;;;;;;5.53;57.54;98115.53;299395;196;63009;-58
2021/03/01 21:31:12;;;;;;;0.70;0.70;;;;;;;5.49;57.27;98130.50;299395;220;63005;-58
2021/03/01 21:36:18;;;;;;;0.70;0.70;;;;;;;5.41;57.97;98131.63;299395;216;63009;-58
2021/03/01 21:41:22;;;;;;;0.60;0.60;;;;;;;5.39;57.63;98129.19;299395;279;63005;-52
2021/03/01 21:46:23;;;;;;;0.70;0.70;;;;;;;5.36;57.97;98116.16;299439;233;63018;-58
2021/03/01 21:51:28;;;;;;;0.70;0.70;;;;;;;5.33;58.75;98132.78;299395;294;63004;-52
2021/03/01 21:56:30;;;;;;;0.70;0.70;;;;;;;5.31;58.41;98131.38;299417;203;63009;-58
2021/03/01 22:01:31;;;;;;;0.70;0.70;;;;;;;5.28;59.25;98134.50;299395;206;63005;-57
2021/03/01 22:06:36;;;;;;;0.70;0.70;;;;;;;5.22;59.54;98135.41;299395;272;63009;-57
2021/03/01 22:11:37;;;;;;;;;;;;;;;5.19;59.52;98131.34;299996;983;6000;-58
2021/03/01 22:16:38;;;;;;;0.60;0.60;;;;;;;5.17;59.91;98133.44;299400;330;63005;-53
2021/03/01 22:21:40;;;;;;;0.70;0.70;;;;;;;5.15;60.21;98135.53;299395;196;63020;-57
2021/03/01 22:26:54;;;;;;;0.70;0.70;;;;;;;5.13;59.91;98148.37;299395;320;63005;-57
2021/03/01 22:32:04;;;;;;;0.70;0.70;;;;;;;5.10;60.16;98143.47;299439;372;63009;-58
2021/03/01 22:37:11;;;;;;;0.70;0.70;;;;;;;5.03;60.63;98138.16;299395;263;63004;-57
2021/03/01 22:42:14;;;;;;;0.70;0.70;;;;;;;4.99;60.40;98142.34;299395;225;63009;-57
2021/03/01 22:47:17;;;;;;;0.70;0.70;;;;;;;4.97;60.69;98147.13;299395;265;63005;-53
2021/03/01 22:52:22;;;;;;;0.70;0.70;;;;;;;4.96;60.84;98144.66;299395;295;63009;-58
2021/03/01 22:57:26;;;;;;;0.70;0.70;;;;;;;4.93;60.86;98142.44;299395;279;63004;-54
2021/03/01 23:02:27;;;;;;;0.70;0.70;;;;;;;4.91;60.82;98144.53;299395;213;63016;-54
2021/03/01 23:07:28;;;;;;;0.70;0.70;;;;;;;4.90;60.99;98146.38;299395;310;63004;-58
2021/03/01 23:12:29;;;;;;;0.70;0.70;;;;;;;4.89;61.14;98141.22;299395;344;63009;-58
2021/03/01 23:17:30;;;;;;;0.60;0.60;;;;;;;4.87;61.29;98144.16;299395;326;63005;-53
2021/03/01 23:22:37;;;;;;;0.70;0.70;;;;;;;4.87;61.72;98143.31;299395;340;63009;-53
2021/03/01 23:27:38;;;;;;;0.70;0.70;;;;;;;4.89;61.78;98149.31;299395;262;63004;-57
2021/03/01 23:32:39;;;;;;;0.65;0.65;;;;;;;4.88;62.29;98151.16;299395;302;63020;-53
2021/03/01 23:37:45;;;;;;;0.70;0.70;;;;;;;4.88;62.00;98150.34;299395;225;63005;-53
2021/03/01 23:42:52;;;;;;;0.70;0.70;;;;;;;4.87;61.99;98152.22;299395;323;63009;-53
2021/03/01 23:47:55;;;;;;;0.70;0.70;;;;;;;4.92;61.86;98146.16;299395;379;63005;-57
2021/03/01 23:53:00;;;;;;;0.70;0.70;;;;;;;5.02;61.15;98149.16;299395;250;63009;-57
2021/03/01 23:58:02;;;;;;;0.70;0.70;;;;;;;5.05;61.02;98148.69;299395;252;63004;-58
